Westport, New York
Current Conditions -  °F | °C
As of 11:35 PM on Sunday 25 Jan 2015 (Local Time) from K6B0 Reporting Station
Clear Clear  
Wind Chill:   Ceiling: Unl
Heat Index:   Visibility: 10mi
Dew Point: -3°   Wind: 3mph
Humidity: 58%   Direction: 360°N
Pressure: 30.05"   Gusts: NA
Location:  44.18°N, 73.44°W
Report Text: K6B0 260435Z AUTO 36003KT 10SM CLR M13/M20 A3005 RMK AO2 T11291197
Loading
Personal Weather Stations






























Interactive Weather Map New forecast layout! Learn more

10-Day Weather Forecast

Advertisements
Track Severe Weather on mobile